sensor_id;sensor_type;location;lat;lon;timestamp;P1;durP1;ratioP1;P2;durP2;ratioP2
9270;SDS011;4673;53.458;9.940;2022-08-21T00:01:11;2.70;;;2.70;;
9270;SDS011;4673;53.458;9.940;2022-08-21T00:03:40;3.20;;;3.20;;
9270;SDS011;4673;53.458;9.940;2022-08-21T00:06:07;2.63;;;2.63;;
9270;SDS011;4673;53.458;9.940;2022-08-21T00:08:33;2.70;;;2.70;;
9270;SDS011;4673;53.458;9.940;2022-08-21T00:10:59;3.47;;;3.47;;
9270;SDS011;4673;53.458;9.940;2022-08-21T00:13:24;2.50;;;2.50;;
9270;SDS011;4673;53.458;9.940;2022-08-21T00:15:50;2.77;;;2.77;;
9270;SDS011;4673;53.458;9.940;2022-08-21T00:18:16;3.53;;;3.53;;
9270;SDS011;4673;53.458;9.940;2022-08-21T00:20:43;2.93;;;2.93;;
9270;SDS011;4673;53.458;9.940;2022-08-21T00:23:10;2.83;;;2.83;;
9270;SDS011;4673;53.458;9.940;2022-08-21T00:25:36;3.20;;;3.20;;
9270;SDS011;4673;53.458;9.940;2022-08-21T00:28:03;2.83;;;2.83;;
9270;SDS011;4673;53.458;9.940;2022-08-21T00:30:30;2.60;;;2.60;;
9270;SDS011;4673;53.458;9.940;2022-08-21T00:32:56;2.80;;;2.80;;
9270;SDS011;4673;53.458;9.940;2022-08-21T00:35:24;2.70;;;2.70;;
9270;SDS011;4673;53.458;9.940;2022-08-21T00:37:56;2.13;;;2.13;;
9270;SDS011;4673;53.458;9.940;2022-08-21T00:40:24;2.63;;;2.63;;
9270;SDS011;4673;53.458;9.940;2022-08-21T00:42:53;2.90;;;2.90;;
9270;SDS011;4673;53.458;9.940;2022-08-21T00:45:19;2.60;;;2.60;;
9270;SDS011;4673;53.458;9.940;2022-08-21T00:47:46;2.77;;;2.77;;
9270;SDS011;4673;53.458;9.940;2022-08-21T00:50:12;2.60;;;2.60;;
9270;SDS011;4673;53.458;9.940;2022-08-21T00:52:38;3.00;;;3.00;;
9270;SDS011;4673;53.458;9.940;2022-08-21T00:55:06;2.97;;;2.97;;
9270;SDS011;4673;53.458;9.940;2022-08-21T00:57:39;2.63;;;2.63;;
9270;SDS011;4673;53.458;9.940;2022-08-21T01:00:11;2.70;;;2.70;;
9270;SDS011;4673;53.458;9.940;2022-08-21T01:02:40;2.93;;;2.93;;
9270;SDS011;4673;53.458;9.940;2022-08-21T01:05:06;2.80;;;2.80;;
9270;SDS011;4673;53.458;9.940;2022-08-21T01:07:32;2.90;;;2.90;;
9270;SDS011;4673;53.458;9.940;2022-08-21T01:09:58;2.50;;;2.50;;
9270;SDS011;4673;53.458;9.940;2022-08-21T01:12:24;2.50;;;2.50;;
9270;SDS011;4673;53.458;9.940;2022-08-21T01:14:51;2.67;;;2.67;;
9270;SDS011;4673;53.458;9.940;2022-08-21T01:17:17;3.23;;;3.23;;
9270;SDS011;4673;53.458;9.940;2022-08-21T01:19:44;2.47;;;2.47;;
9270;SDS011;4673;53.458;9.940;2022-08-21T01:22:10;2.60;;;2.60;;
9270;SDS011;4673;53.458;9.940;2022-08-21T01:24:35;3.30;;;3.30;;
9270;SDS011;4673;53.458;9.940;2022-08-21T01:27:01;3.07;;;3.07;;
9270;SDS011;4673;53.458;9.940;2022-08-21T01:29:45;3.13;;;3.13;;
9270;SDS011;4673;53.458;9.940;2022-08-21T01:32:18;2.90;;;2.90;;
9270;SDS011;4673;53.458;9.940;2022-08-21T01:34:46;2.50;;;2.50;;
9270;SDS011;4673;53.458;9.940;2022-08-21T01:37:13;2.43;;;2.43;;
9270;SDS011;4673;53.458;9.940;2022-08-21T01:39:40;3.10;;;3.10;;
9270;SDS011;4673;53.458;9.940;2022-08-21T01:42:06;3.50;;;3.50;;
9270;SDS011;4673;53.458;9.940;2022-08-21T01:44:32;3.47;;;3.47;;
9270;SDS011;4673;53.458;9.940;2022-08-21T01:47:00;3.67;;;3.67;;
9270;SDS011;4673;53.458;9.940;2022-08-21T01:49:27;2.60;;;2.60;;
9270;SDS011;4673;53.458;9.940;2022-08-21T01:51:53;2.67;;;2.67;;
9270;SDS011;4673;53.458;9.940;2022-08-21T01:54:19;2.80;;;2.80;;
9270;SDS011;4673;53.458;9.940;2022-08-21T01:56:46;2.77;;;2.77;;
9270;SDS011;4673;53.458;9.940;2022-08-21T01:59:13;2.20;;;2.20;;
9270;SDS011;4673;53.458;9.940;2022-08-21T02:01:39;3.07;;;3.07;;
9270;SDS011;4673;53.458;9.940;2022-08-21T02:04:06;3.40;;;3.40;;
9270;SDS011;4673;53.458;9.940;2022-08-21T02:06:33;3.03;;;3.03;;
9270;SDS011;4673;53.458;9.940;2022-08-21T02:08:59;2.80;;;2.80;;
9270;SDS011;4673;53.458;9.940;2022-08-21T02:11:26;2.60;;;2.60;;
9270;SDS011;4673;53.458;9.940;2022-08-21T02:13:51;2.23;;;2.23;;
9270;SDS011;4673;53.458;9.940;2022-08-21T02:16:17;2.50;;;2.50;;
9270;SDS011;4673;53.458;9.940;2022-08-21T02:18:43;2.43;;;2.43;;
9270;SDS011;4673;53.458;9.940;2022-08-21T02:21:08;2.50;;;2.50;;
9270;SDS011;4673;53.458;9.940;2022-08-21T02:23:34;2.67;;;2.67;;
9270;SDS011;4673;53.458;9.940;2022-08-21T02:26:00;2.73;;;2.73;;
9270;SDS011;4673;53.458;9.940;2022-08-21T02:28:28;2.83;;;2.83;;
9270;SDS011;4673;53.458;9.940;2022-08-21T02:30:54;2.93;;;2.93;;
9270;SDS011;4673;53.458;9.940;2022-08-21T02:33:21;3.23;;;3.23;;
9270;SDS011;4673;53.458;9.940;2022-08-21T02:35:47;2.80;;;2.80;;
9270;SDS011;4673;53.458;9.940;2022-08-21T02:38:14;2.97;;;2.97;;
9270;SDS011;4673;53.458;9.940;2022-08-21T02:40:46;2.70;;;2.70;;
9270;SDS011;4673;53.458;9.940;2022-08-21T02:43:14;2.60;;;2.60;;
9270;SDS011;4673;53.458;9.940;2022-08-21T02:45:40;2.57;;;2.57;;
9270;SDS011;4673;53.458;9.940;2022-08-21T02:48:08;2.30;;;2.30;;
9270;SDS011;4673;53.458;9.940;2022-08-21T02:50:38;2.60;;;2.60;;
9270;SDS011;4673;53.458;9.940;2022-08-21T02:53:05;2.13;;;2.13;;
9270;SDS011;4673;53.458;9.940;2022-08-21T02:55:33;2.90;;;2.90;;
9270;SDS011;4673;53.458;9.940;2022-08-21T02:58:03;2.60;;;2.60;;
9270;SDS011;4673;53.458;9.940;2022-08-21T03:00:32;2.80;;;2.80;;
9270;SDS011;4673;53.458;9.940;2022-08-21T03:02:58;2.20;;;2.20;;
9270;SDS011;4673;53.458;9.940;2022-08-21T03:05:25;2.70;;;2.70;;
9270;SDS011;4673;53.458;9.940;2022-08-21T03:07:52;2.53;;;2.53;;
9270;SDS011;4673;53.458;9.940;2022-08-21T03:10:19;2.23;;;2.23;;
9270;SDS011;4673;53.458;9.940;2022-08-21T03:12:46;2.47;;;2.47;;
9270;SDS011;4673;53.458;9.940;2022-08-21T03:15:14;2.23;;;2.23;;
9270;SDS011;4673;53.458;9.940;2022-08-21T03:17:42;2.53;;;2.53;;
9270;SDS011;4673;53.458;9.940;2022-08-21T03:20:08;2.30;;;2.30;;
9270;SDS011;4673;53.458;9.940;2022-08-21T03:22:34;2.17;;;2.17;;
9270;SDS011;4673;53.458;9.940;2022-08-21T03:25:00;2.40;;;2.40;;
9270;SDS011;4673;53.458;9.940;2022-08-21T03:27:26;2.53;;;2.53;;
9270;SDS011;4673;53.458;9.940;2022-08-21T03:29:53;2.17;;;2.17;;
9270;SDS011;4673;53.458;9.940;2022-08-21T03:32:19;2.63;;;2.63;;
9270;SDS011;4673;53.458;9.940;2022-08-21T03:34:46;2.87;;;2.87;;
9270;SDS011;4673;53.458;9.940;2022-08-21T03:37:12;2.33;;;2.33;;
9270;SDS011;4673;53.458;9.940;2022-08-21T03:39:38;2.90;;;2.90;;
9270;SDS011;4673;53.458;9.940;2022-08-21T03:42:04;2.53;;;2.53;;
9270;SDS011;4673;53.458;9.940;2022-08-21T03:44:31;2.70;;;2.70;;
9270;SDS011;4673;53.458;9.940;2022-08-21T03:46:57;2.70;;;2.70;;
9270;SDS011;4673;53.458;9.940;2022-08-21T03:49:23;2.90;;;2.90;;
9270;SDS011;4673;53.458;9.940;2022-08-21T03:51:49;2.93;;;2.93;;
9270;SDS011;4673;53.458;9.940;2022-08-21T03:54:15;2.53;;;2.53;;
9270;SDS011;4673;53.458;9.940;2022-08-21T03:56:41;2.40;;;2.40;;
9270;SDS011;4673;53.458;9.940;2022-08-21T03:59:06;2.57;;;2.57;;
9270;SDS011;4673;53.458;9.940;2022-08-21T04:05:01;2.50;;;2.50;;
9270;SDS011;4673;53.458;9.940;2022-08-21T04:07:42;2.73;;;2.73;;
9270;SDS011;4673;53.458;9.940;2022-08-21T04:10:25;2.57;;;2.57;;
9270;SDS011;4673;53.458;9.940;2022-08-21T04:12:52;2.47;;;2.47;;
9270;SDS011;4673;53.458;9.940;2022-08-21T04:15:18;2.57;;;2.57;;
9270;SDS011;4673;53.458;9.940;2022-08-21T04:17:45;2.60;;;2.60;;
9270;SDS011;4673;53.458;9.940;2022-08-21T04:20:11;2.90;;;2.90;;
9270;SDS011;4673;53.458;9.940;2022-08-21T04:22:37;3.30;;;3.30;;
9270;SDS011;4673;53.458;9.940;2022-08-21T04:25:04;3.30;;;3.30;;
9270;SDS011;4673;53.458;9.940;2022-08-21T04:27:30;2.40;;;2.40;;
9270;SDS011;4673;53.458;9.940;2022-08-21T04:29:55;2.40;;;2.40;;
9270;SDS011;4673;53.458;9.940;2022-08-21T04:32:22;2.70;;;2.70;;
9270;SDS011;4673;53.458;9.940;2022-08-21T04:34:48;2.90;;;2.90;;
9270;SDS011;4673;53.458;9.940;2022-08-21T04:37:14;2.40;;;2.40;;
9270;SDS011;4673;53.458;9.940;2022-08-21T04:39:40;2.60;;;2.60;;
9270;SDS011;4673;53.458;9.940;2022-08-21T04:42:07;3.13;;;3.13;;
9270;SDS011;4673;53.458;9.940;2022-08-21T04:44:33;3.17;;;3.17;;
9270;SDS011;4673;53.458;9.940;2022-08-21T04:46:59;2.93;;;2.93;;
9270;SDS011;4673;53.458;9.940;2022-08-21T04:49:24;2.93;;;2.93;;
9270;SDS011;4673;53.458;9.940;2022-08-21T04:51:50;2.90;;;2.90;;
9270;SDS011;4673;53.458;9.940;2022-08-21T04:54:17;2.90;;;2.90;;
9270;SDS011;4673;53.458;9.940;2022-08-21T04:56:47;3.60;;;3.60;;
9270;SDS011;4673;53.458;9.940;2022-08-21T04:59:22;2.80;;;2.80;;
9270;SDS011;4673;53.458;9.940;2022-08-21T05:01:51;2.53;;;2.53;;
9270;SDS011;4673;53.458;9.940;2022-08-21T05:04:21;3.00;;;3.00;;
9270;SDS011;4673;53.458;9.940;2022-08-21T05:06:51;3.10;;;3.10;;
9270;SDS011;4673;53.458;9.940;2022-08-21T05:09:19;2.17;;;2.17;;
9270;SDS011;4673;53.458;9.940;2022-08-21T05:11:46;2.42;;;2.42;;
9270;SDS011;4673;53.458;9.940;2022-08-21T05:14:13;2.72;;;2.72;;
9270;SDS011;4673;53.458;9.940;2022-08-21T05:16:39;2.60;;;2.60;;
9270;SDS011;4673;53.458;9.940;2022-08-21T05:19:06;1.90;;;1.90;;
9270;SDS011;4673;53.458;9.940;2022-08-21T05:21:33;2.40;;;2.40;;
9270;SDS011;4673;53.458;9.940;2022-08-21T05:24:00;2.15;;;2.15;;
9270;SDS011;4673;53.458;9.940;2022-08-21T05:26:25;2.10;;;2.10;;
9270;SDS011;4673;53.458;9.940;2022-08-21T05:28:51;2.50;;;2.50;;
9270;SDS011;4673;53.458;9.940;2022-08-21T05:31:17;2.08;;;2.08;;
9270;SDS011;4673;53.458;9.940;2022-08-21T05:33:42;2.13;;;2.13;;
9270;SDS011;4673;53.458;9.940;2022-08-21T05:36:08;1.95;;;1.95;;
9270;SDS011;4673;53.458;9.940;2022-08-21T05:38:34;1.83;;;1.83;;
9270;SDS011;4673;53.458;9.940;2022-08-21T05:40:59;2.15;;;2.15;;
9270;SDS011;4673;53.458;9.940;2022-08-21T05:43:25;2.17;;;2.17;;
9270;SDS011;4673;53.458;9.940;2022-08-21T05:45:51;1.55;;;1.55;;
9270;SDS011;4673;53.458;9.940;2022-08-21T05:48:20;2.05;;;2.05;;
9270;SDS011;4673;53.458;9.940;2022-08-21T05:50:47;1.60;;;1.60;;
9270;SDS011;4673;53.458;9.940;2022-08-21T05:53:14;1.80;;;1.80;;
9270;SDS011;4673;53.458;9.940;2022-08-21T05:55:41;2.03;;;2.03;;
9270;SDS011;4673;53.458;9.940;2022-08-21T05:58:07;1.63;;;1.63;;
9270;SDS011;4673;53.458;9.940;2022-08-21T06:00:33;1.40;;;1.40;;
9270;SDS011;4673;53.458;9.940;2022-08-21T06:02:59;1.50;;;1.50;;
9270;SDS011;4673;53.458;9.940;2022-08-21T06:05:25;1.60;;;1.60;;
9270;SDS011;4673;53.458;9.940;2022-08-21T06:07:51;1.73;;;1.73;;
9270;SDS011;4673;53.458;9.940;2022-08-21T06:10:17;1.73;;;1.73;;
9270;SDS011;4673;53.458;9.940;2022-08-21T06:12:42;1.70;;;1.70;;
9270;SDS011;4673;53.458;9.940;2022-08-21T06:15:09;1.83;;;1.83;;
9270;SDS011;4673;53.458;9.940;2022-08-21T06:17:35;1.85;;;1.85;;
9270;SDS011;4673;53.458;9.940;2022-08-21T06:20:01;1.30;;;1.30;;
9270;SDS011;4673;53.458;9.940;2022-08-21T06:22:28;1.58;;;1.58;;
9270;SDS011;4673;53.458;9.940;2022-08-21T06:24:53;1.73;;;1.73;;
9270;SDS011;4673;53.458;9.940;2022-08-21T06:27:19;1.33;;;1.33;;
9270;SDS011;4673;53.458;9.940;2022-08-21T06:29:45;2.13;;;2.13;;
9270;SDS011;4673;53.458;9.940;2022-08-21T06:32:11;1.52;;;1.52;;
9270;SDS011;4673;53.458;9.940;2022-08-21T06:34:38;1.50;;;1.50;;
9270;SDS011;4673;53.458;9.940;2022-08-21T06:37:05;1.40;;;1.40;;
9270;SDS011;4673;53.458;9.940;2022-08-21T06:39:31;2.35;;;2.35;;
9270;SDS011;4673;53.458;9.940;2022-08-21T06:41:57;1.30;;;1.30;;
9270;SDS011;4673;53.458;9.940;2022-08-21T06:44:22;1.52;;;1.52;;
9270;SDS011;4673;53.458;9.940;2022-08-21T06:46:48;2.17;;;2.17;;
9270;SDS011;4673;53.458;9.940;2022-08-21T06:49:13;1.40;;;1.40;;
9270;SDS011;4673;53.458;9.940;2022-08-21T06:51:40;1.20;;;1.20;;
9270;SDS011;4673;53.458;9.940;2022-08-21T06:54:06;1.50;;;1.50;;
9270;SDS011;4673;53.458;9.940;2022-08-21T06:56:32;2.00;;;2.00;;
9270;SDS011;4673;53.458;9.940;2022-08-21T06:58:58;1.55;;;1.55;;
9270;SDS011;4673;53.458;9.940;2022-08-21T07:01:24;1.60;;;1.60;;
9270;SDS011;4673;53.458;9.940;2022-08-21T07:03:51;1.52;;;1.52;;
9270;SDS011;4673;53.458;9.940;2022-08-21T07:06:17;4.43;;;4.40;;
9270;SDS011;4673;53.458;9.940;2022-08-21T07:08:43;2.55;;;2.55;;
9270;SDS011;4673;53.458;9.940;2022-08-21T07:11:11;1.77;;;1.77;;
9270;SDS011;4673;53.458;9.940;2022-08-21T07:13:41;1.55;;;1.55;;
9270;SDS011;4673;53.458;9.940;2022-08-21T07:16:07;1.58;;;1.58;;
9270;SDS011;4673;53.458;9.940;2022-08-21T07:18:33;1.65;;;1.65;;
9270;SDS011;4673;53.458;9.940;2022-08-21T07:21:00;1.90;;;1.90;;
9270;SDS011;4673;53.458;9.940;2022-08-21T07:23:28;1.73;;;1.73;;
9270;SDS011;4673;53.458;9.940;2022-08-21T07:25:56;1.77;;;1.77;;
9270;SDS011;4673;53.458;9.940;2022-08-21T07:28:24;1.60;;;1.60;;
9270;SDS011;4673;53.458;9.940;2022-08-21T07:30:50;2.20;;;2.20;;
9270;SDS011;4673;53.458;9.940;2022-08-21T07:33:17;1.65;;;1.65;;
9270;SDS011;4673;53.458;9.940;2022-08-21T07:35:43;1.88;;;1.88;;
9270;SDS011;4673;53.458;9.940;2022-08-21T07:38:09;2.08;;;2.08;;
9270;SDS011;4673;53.458;9.940;2022-08-21T07:40:34;2.20;;;2.20;;
9270;SDS011;4673;53.458;9.940;2022-08-21T07:43:00;1.65;;;1.65;;
9270;SDS011;4673;53.458;9.940;2022-08-21T07:45:26;1.40;;;1.40;;
9270;SDS011;4673;53.458;9.940;2022-08-21T07:47:52;1.95;;;1.95;;
9270;SDS011;4673;53.458;9.940;2022-08-21T07:50:18;1.55;;;1.55;;
9270;SDS011;4673;53.458;9.940;2022-08-21T07:52:44;1.52;;;1.52;;
9270;SDS011;4673;53.458;9.940;2022-08-21T07:55:11;1.50;;;1.50;;
9270;SDS011;4673;53.458;9.940;2022-08-21T07:57:40;1.92;;;1.92;;
9270;SDS011;4673;53.458;9.940;2022-08-21T08:00:07;1.80;;;1.80;;
9270;SDS011;4673;53.458;9.940;2022-08-21T08:02:35;2.40;;;2.40;;
9270;SDS011;4673;53.458;9.940;2022-08-21T08:05:01;2.70;;;2.70;;
9270;SDS011;4673;53.458;9.940;2022-08-21T08:07:28;1.90;;;1.90;;
9270;SDS011;4673;53.458;9.940;2022-08-21T08:09:54;1.65;;;1.65;;
9270;SDS011;4673;53.458;9.940;2022-08-21T08:12:20;1.50;;;1.50;;
9270;SDS011;4673;53.458;9.940;2022-08-21T08:14:46;1.60;;;1.60;;
9270;SDS011;4673;53.458;9.940;2022-08-21T08:17:12;2.08;;;2.08;;
9270;SDS011;4673;53.458;9.940;2022-08-21T08:19:38;1.95;;;1.95;;
9270;SDS011;4673;53.458;9.940;2022-08-21T08:22:17;1.77;;;1.77;;
9270;SDS011;4673;53.458;9.940;2022-08-21T08:24:44;1.92;;;1.92;;
9270;SDS011;4673;53.458;9.940;2022-08-21T08:27:10;1.92;;;1.92;;
9270;SDS011;4673;53.458;9.940;2022-08-21T08:29:36;2.00;;;2.00;;
9270;SDS011;4673;53.458;9.940;2022-08-21T08:32:02;1.80;;;1.80;;
9270;SDS011;4673;53.458;9.940;2022-08-21T08:34:29;2.10;;;2.10;;
9270;SDS011;4673;53.458;9.940;2022-08-21T08:36:55;2.10;;;2.10;;
9270;SDS011;4673;53.458;9.940;2022-08-21T08:39:22;1.75;;;1.75;;
9270;SDS011;4673;53.458;9.940;2022-08-21T08:41:48;2.38;;;2.38;;
9270;SDS011;4673;53.458;9.940;2022-08-21T08:44:16;1.95;;;1.95;;
9270;SDS011;4673;53.458;9.940;2022-08-21T08:46:46;2.67;;;2.67;;
9270;SDS011;4673;53.458;9.940;2022-08-21T08:49:17;2.72;;;2.72;;
9270;SDS011;4673;53.458;9.940;2022-08-21T08:51:55;2.03;;;2.03;;
9270;SDS011;4673;53.458;9.940;2022-08-21T08:54:37;2.17;;;2.17;;
9270;SDS011;4673;53.458;9.940;2022-08-21T08:57:10;2.10;;;2.10;;
9270;SDS011;4673;53.458;9.940;2022-08-21T08:59:46;2.80;;;2.80;;
9270;SDS011;4673;53.458;9.940;2022-08-21T09:02:15;3.00;;;3.00;;
9270;SDS011;4673;53.458;9.940;2022-08-21T09:04:42;2.70;;;2.70;;
9270;SDS011;4673;53.458;9.940;2022-08-21T09:12:33;1.80;;;1.80;;
9270;SDS011;4673;53.458;9.940;2022-08-21T09:15:09;2.53;;;2.53;;
9270;SDS011;4673;53.458;9.940;2022-08-21T09:17:54;2.78;;;2.78;;
9270;SDS011;4673;53.458;9.940;2022-08-21T09:20:40;2.10;;;2.10;;
9270;SDS011;4673;53.458;9.940;2022-08-21T09:23:36;2.30;;;2.30;;
9270;SDS011;4673;53.458;9.940;2022-08-21T09:26:18;2.28;;;2.28;;
9270;SDS011;4673;53.458;9.940;2022-08-21T09:28:45;2.58;;;2.58;;
9270;SDS011;4673;53.458;9.940;2022-08-21T09:31:23;1.88;;;1.88;;
9270;SDS011;4673;53.458;9.940;2022-08-21T09:33:59;2.85;;;2.85;;
9270;SDS011;4673;53.458;9.940;2022-08-21T09:36:37;2.33;;;2.33;;
9270;SDS011;4673;53.458;9.940;2022-08-21T09:39:08;2.40;;;2.40;;
9270;SDS011;4673;53.458;9.940;2022-08-21T09:41:36;3.00;;;3.00;;
9270;SDS011;4673;53.458;9.940;2022-08-21T09:44:04;2.05;;;2.05;;
9270;SDS011;4673;53.458;9.940;2022-08-21T09:46:31;2.20;;;2.20;;
9270;SDS011;4673;53.458;9.940;2022-08-21T09:49:01;2.03;;;2.03;;
9270;SDS011;4673;53.458;9.940;2022-08-21T09:51:30;2.25;;;2.25;;
9270;SDS011;4673;53.458;9.940;2022-08-21T09:53:58;2.08;;;2.08;;
9270;SDS011;4673;53.458;9.940;2022-08-21T09:59:38;2.45;;;2.45;;
9270;SDS011;4673;53.458;9.940;2022-08-21T10:04:52;2.22;;;2.22;;
9270;SDS011;4673;53.458;9.940;2022-08-21T10:07:32;2.30;;;2.30;;
9270;SDS011;4673;53.458;9.940;2022-08-21T10:10:18;2.08;;;2.08;;
9270;SDS011;4673;53.458;9.940;2022-08-21T10:26:26;1.83;;;1.83;;
9270;SDS011;4673;53.458;9.940;2022-08-21T10:29:03;2.08;;;2.08;;
9270;SDS011;4673;53.458;9.940;2022-08-21T10:37:12;1.83;;;1.83;;
9270;SDS011;4673;53.458;9.940;2022-08-21T10:39:55;1.48;;;1.48;;
9270;SDS011;4673;53.458;9.940;2022-08-21T10:42:33;1.40;;;1.40;;
9270;SDS011;4673;53.458;9.940;2022-08-21T10:45:15;2.30;;;2.30;;
9270;SDS011;4673;53.458;9.940;2022-08-21T10:48:12;1.95;;;1.95;;
9270;SDS011;4673;53.458;9.940;2022-08-21T10:50:54;1.85;;;1.85;;
9270;SDS011;4673;53.458;9.940;2022-08-21T10:56:22;1.67;;;1.67;;
9270;SDS011;4673;53.458;9.940;2022-08-21T11:01:57;1.95;;;1.95;;
9270;SDS011;4673;53.458;9.940;2022-08-21T11:10:26;1.80;;;1.80;;
9270;SDS011;4673;53.458;9.940;2022-08-21T11:13:11;1.67;;;1.67;;
9270;SDS011;4673;53.458;9.940;2022-08-21T11:16:04;2.00;;;2.00;;
9270;SDS011;4673;53.458;9.940;2022-08-21T11:18:32;1.90;;;1.90;;
9270;SDS011;4673;53.458;9.940;2022-08-21T11:23:49;1.70;;;1.70;;
9270;SDS011;4673;53.458;9.940;2022-08-21T11:29:51;1.85;;;1.85;;
9270;SDS011;4673;53.458;9.940;2022-08-21T11:32:34;1.85;;;1.85;;
9270;SDS011;4673;53.458;9.940;2022-08-21T11:35:06;1.70;;;1.70;;
9270;SDS011;4673;53.458;9.940;2022-08-21T11:40:43;1.50;;;1.50;;
9270;SDS011;4673;53.458;9.940;2022-08-21T11:46:00;1.95;;;1.95;;
9270;SDS011;4673;53.458;9.940;2022-08-21T11:56:47;1.63;;;1.63;;
9270;SDS011;4673;53.458;9.940;2022-08-21T11:59:20;1.40;;;1.40;;
9270;SDS011;4673;53.458;9.940;2022-08-21T12:01:51;1.20;;;1.20;;
9270;SDS011;4673;53.458;9.940;2022-08-21T12:04:30;1.63;;;1.63;;
9270;SDS011;4673;53.458;9.940;2022-08-21T12:07:09;1.50;;;1.50;;
9270;SDS011;4673;53.458;9.940;2022-08-21T12:09:51;1.30;;;1.30;;
9270;SDS011;4673;53.458;9.940;2022-08-21T12:12:23;1.60;;;1.60;;
9270;SDS011;4673;53.458;9.940;2022-08-21T12:15:06;1.35;;;1.35;;
9270;SDS011;4673;53.458;9.940;2022-08-21T12:20:59;1.63;;;1.63;;
9270;SDS011;4673;53.458;9.940;2022-08-21T12:23:29;1.50;;;1.50;;
9270;SDS011;4673;53.458;9.940;2022-08-21T12:28:38;1.65;;;1.65;;
9270;SDS011;4673;53.458;9.940;2022-08-21T12:31:15;1.70;;;1.70;;
9270;SDS011;4673;53.458;9.940;2022-08-21T12:33:54;1.42;;;1.42;;
9270;SDS011;4673;53.458;9.940;2022-08-21T12:36:26;1.30;;;1.30;;
9270;SDS011;4673;53.458;9.940;2022-08-21T12:39:12;1.30;;;1.30;;
9270;SDS011;4673;53.458;9.940;2022-08-21T12:44:39;1.88;;;1.88;;
9270;SDS011;4673;53.458;9.940;2022-08-21T12:47:54;1.33;;;1.33;;
9270;SDS011;4673;53.458;9.940;2022-08-21T12:50:11;1.67;;;1.67;;
9270;SDS011;4673;53.458;9.940;2022-08-21T12:52:44;1.63;;;1.63;;
9270;SDS011;4673;53.458;9.940;2022-08-21T12:55:25;1.15;;;1.15;;
9270;SDS011;4673;53.458;9.940;2022-08-21T12:57:53;1.23;;;1.23;;
9270;SDS011;4673;53.458;9.940;2022-08-21T13:00:20;1.80;;;1.80;;
9270;SDS011;4673;53.458;9.940;2022-08-21T13:02:49;1.60;;;1.60;;
9270;SDS011;4673;53.458;9.940;2022-08-21T13:05:19;1.38;;;1.38;;
9270;SDS011;4673;53.458;9.940;2022-08-21T13:07:58;1.10;;;1.10;;
9270;SDS011;4673;53.458;9.940;2022-08-21T13:10:29;1.58;;;1.58;;
9270;SDS011;4673;53.458;9.940;2022-08-21T13:12:57;1.23;;;1.23;;
9270;SDS011;4673;53.458;9.940;2022-08-21T13:15:29;1.02;;;1.02;;
9270;SDS011;4673;53.458;9.940;2022-08-21T13:17:57;1.35;;;1.35;;
9270;SDS011;4673;53.458;9.940;2022-08-21T13:20:29;1.65;;;1.65;;
9270;SDS011;4673;53.458;9.940;2022-08-21T13:23:00;1.52;;;1.52;;
9270;SDS011;4673;53.458;9.940;2022-08-21T13:25:33;1.30;;;1.30;;
9270;SDS011;4673;53.458;9.940;2022-08-21T13:28:07;1.40;;;1.40;;
9270;SDS011;4673;53.458;9.940;2022-08-21T13:30:40;1.70;;;1.70;;
9270;SDS011;4673;53.458;9.940;2022-08-21T13:33:09;1.63;;;1.63;;
9270;SDS011;4673;53.458;9.940;2022-08-21T13:35:45;1.45;;;1.45;;
9270;SDS011;4673;53.458;9.940;2022-08-21T13:38:30;1.35;;;1.35;;
9270;SDS011;4673;53.458;9.940;2022-08-21T13:41:01;1.52;;;1.52;;
9270;SDS011;4673;53.458;9.940;2022-08-21T13:43:32;1.45;;;1.45;;
9270;SDS011;4673;53.458;9.940;2022-08-21T13:46:00;1.42;;;1.42;;
9270;SDS011;4673;53.458;9.940;2022-08-21T13:48:28;1.35;;;1.35;;
9270;SDS011;4673;53.458;9.940;2022-08-21T13:50:56;1.90;;;1.90;;
9270;SDS011;4673;53.458;9.940;2022-08-21T13:53:30;1.40;;;1.40;;
9270;SDS011;4673;53.458;9.940;2022-08-21T13:56:00;1.25;;;1.25;;
9270;SDS011;4673;53.458;9.940;2022-08-21T13:58:49;1.50;;;1.50;;
9270;SDS011;4673;53.458;9.940;2022-08-21T14:04:23;1.30;;;1.30;;
9270;SDS011;4673;53.458;9.940;2022-08-21T14:06:52;1.17;;;1.17;;
9270;SDS011;4673;53.458;9.940;2022-08-21T14:11:53;1.63;;;1.63;;
9270;SDS011;4673;53.458;9.940;2022-08-21T14:14:25;1.40;;;1.40;;
9270;SDS011;4673;53.458;9.940;2022-08-21T14:19:45;1.50;;;1.50;;
9270;SDS011;4673;53.458;9.940;2022-08-21T14:25:30;1.00;;;1.00;;
9270;SDS011;4673;53.458;9.940;2022-08-21T14:30:45;1.20;;;1.20;;
9270;SDS011;4673;53.458;9.940;2022-08-21T14:33:11;1.23;;;1.23;;
9270;SDS011;4673;53.458;9.940;2022-08-21T14:35:44;1.20;;;1.20;;
9270;SDS011;4673;53.458;9.940;2022-08-21T14:38:13;1.38;;;1.38;;
9270;SDS011;4673;53.458;9.940;2022-08-21T14:40:43;1.23;;;1.23;;
9270;SDS011;4673;53.458;9.940;2022-08-21T14:43:13;1.48;;;1.48;;
9270;SDS011;4673;53.458;9.940;2022-08-21T14:45:38;1.20;;;1.20;;
9270;SDS011;4673;53.458;9.940;2022-08-21T14:48:06;1.52;;;1.52;;
9270;SDS011;4673;53.458;9.940;2022-08-21T14:50:32;1.48;;;1.48;;
9270;SDS011;4673;53.458;9.940;2022-08-21T14:52:58;1.23;;;1.23;;
9270;SDS011;4673;53.458;9.940;2022-08-21T14:55:24;1.30;;;1.30;;
9270;SDS011;4673;53.458;9.940;2022-08-21T14:57:51;1.58;;;1.58;;
9270;SDS011;4673;53.458;9.940;2022-08-21T15:00:19;1.00;;;1.00;;
9270;SDS011;4673;53.458;9.940;2022-08-21T15:02:50;1.13;;;1.13;;
9270;SDS011;4673;53.458;9.940;2022-08-21T15:05:16;1.90;;;1.90;;
9270;SDS011;4673;53.458;9.940;2022-08-21T15:07:43;1.30;;;1.30;;
9270;SDS011;4673;53.458;9.940;2022-08-21T15:10:09;1.10;;;1.10;;
9270;SDS011;4673;53.458;9.940;2022-08-21T15:12:36;1.48;;;1.48;;
9270;SDS011;4673;53.458;9.940;2022-08-21T15:15:04;1.25;;;1.25;;
9270;SDS011;4673;53.458;9.940;2022-08-21T15:17:30;1.73;;;1.73;;
9270;SDS011;4673;53.458;9.940;2022-08-21T15:19:56;1.40;;;1.40;;
9270;SDS011;4673;53.458;9.940;2022-08-21T15:22:22;1.20;;;1.20;;
9270;SDS011;4673;53.458;9.940;2022-08-21T15:24:47;1.15;;;1.15;;
9270;SDS011;4673;53.458;9.940;2022-08-21T15:27:13;1.50;;;1.50;;
9270;SDS011;4673;53.458;9.940;2022-08-21T15:29:41;1.17;;;1.17;;
9270;SDS011;4673;53.458;9.940;2022-08-21T15:32:21;1.30;;;1.30;;
9270;SDS011;4673;53.458;9.940;2022-08-21T15:34:50;1.17;;;1.17;;
9270;SDS011;4673;53.458;9.940;2022-08-21T15:37:17;1.38;;;1.38;;
9270;SDS011;4673;53.458;9.940;2022-08-21T15:39:43;1.25;;;1.25;;
9270;SDS011;4673;53.458;9.940;2022-08-21T15:42:09;1.42;;;1.42;;
9270;SDS011;4673;53.458;9.940;2022-08-21T15:44:36;1.40;;;1.40;;
9270;SDS011;4673;53.458;9.940;2022-08-21T15:47:03;1.40;;;1.40;;
9270;SDS011;4673;53.458;9.940;2022-08-21T15:49:29;1.70;;;1.70;;
9270;SDS011;4673;53.458;9.940;2022-08-21T15:51:55;1.52;;;1.52;;
9270;SDS011;4673;53.458;9.940;2022-08-21T15:54:21;1.30;;;1.30;;
9270;SDS011;4673;53.458;9.940;2022-08-21T15:56:47;1.60;;;1.60;;
9270;SDS011;4673;53.458;9.940;2022-08-21T15:59:16;1.73;;;1.73;;
9270;SDS011;4673;53.458;9.940;2022-08-21T16:01:46;1.58;;;1.58;;
9270;SDS011;4673;53.458;9.940;2022-08-21T16:04:15;1.30;;;1.30;;
9270;SDS011;4673;53.458;9.940;2022-08-21T16:06:46;1.40;;;1.40;;
9270;SDS011;4673;53.458;9.940;2022-08-21T16:09:13;1.23;;;1.23;;
9270;SDS011;4673;53.458;9.940;2022-08-21T16:11:40;1.30;;;1.30;;
9270;SDS011;4673;53.458;9.940;2022-08-21T16:14:06;1.42;;;1.42;;
9270;SDS011;4673;53.458;9.940;2022-08-21T16:16:32;1.13;;;1.13;;
9270;SDS011;4673;53.458;9.940;2022-08-21T16:18:59;1.23;;;1.23;;
9270;SDS011;4673;53.458;9.940;2022-08-21T16:21:27;1.02;;;1.02;;
9270;SDS011;4673;53.458;9.940;2022-08-21T16:23:53;1.40;;;1.40;;
9270;SDS011;4673;53.458;9.940;2022-08-21T16:26:18;1.40;;;1.40;;
9270;SDS011;4673;53.458;9.940;2022-08-21T16:28:44;1.10;;;1.10;;
9270;SDS011;4673;53.458;9.940;2022-08-21T16:31:12;1.63;;;1.63;;
9270;SDS011;4673;53.458;9.940;2022-08-21T16:33:39;1.55;;;1.55;;
9270;SDS011;4673;53.458;9.940;2022-08-21T16:36:08;1.60;;;1.60;;
9270;SDS011;4673;53.458;9.940;2022-08-21T16:38:35;1.65;;;1.65;;
9270;SDS011;4673;53.458;9.940;2022-08-21T16:41:02;1.15;;;1.15;;
9270;SDS011;4673;53.458;9.940;2022-08-21T16:43:29;0.85;;;0.85;;
9270;SDS011;4673;53.458;9.940;2022-08-21T16:45:55;1.33;;;1.33;;
9270;SDS011;4673;53.458;9.940;2022-08-21T16:48:22;1.48;;;1.48;;
9270;SDS011;4673;53.458;9.940;2022-08-21T16:50:48;1.02;;;1.02;;
9270;SDS011;4673;53.458;9.940;2022-08-21T16:53:14;1.58;;;1.58;;
9270;SDS011;4673;53.458;9.940;2022-08-21T16:55:41;1.48;;;1.48;;